sensor_id;sensor_type;location;lat;lon;timestamp;P1;durP1;ratioP1;P2;durP2;ratioP2
76568;SDS011;65429;44.498;0.166;2022-12-07T00:02:05;5.63;;;4.20;;
76568;SDS011;65429;44.498;0.166;2022-12-07T00:15:55;7.50;;;4.53;;
76568;SDS011;65429;44.498;0.166;2022-12-07T00:29:45;8.80;;;4.60;;
76568;SDS011;65429;44.498;0.166;2022-12-07T00:43:35;5.70;;;3.73;;
76568;SDS011;65429;44.498;0.166;2022-12-07T00:57:27;8.30;;;5.50;;
76568;SDS011;65429;44.498;0.166;2022-12-07T01:11:19;8.17;;;5.93;;
76568;SDS011;65429;44.498;0.166;2022-12-07T01:25:09;11.17;;;5.93;;
76568;SDS011;65429;44.498;0.166;2022-12-07T01:39:00;10.00;;;6.23;;
76568;SDS011;65429;44.498;0.166;2022-12-07T01:52:50;15.17;;;7.20;;
76568;SDS011;65429;44.498;0.166;2022-12-07T02:06:41;16.50;;;8.03;;
76568;SDS011;65429;44.498;0.166;2022-12-07T02:20:32;13.23;;;8.80;;
76568;SDS011;65429;44.498;0.166;2022-12-07T02:34:26;12.60;;;8.20;;
76568;SDS011;65429;44.498;0.166;2022-12-07T02:48:13;13.53;;;8.77;;
76568;SDS011;65429;44.498;0.166;2022-12-07T03:02:06;17.47;;;11.20;;
76568;SDS011;65429;44.498;0.166;2022-12-07T03:15:56;18.60;;;10.33;;
76568;SDS011;65429;44.498;0.166;2022-12-07T03:29:46;17.00;;;9.60;;
76568;SDS011;65429;44.498;0.166;2022-12-07T03:43:36;19.07;;;9.90;;
76568;SDS011;65429;44.498;0.166;2022-12-07T03:57:26;17.50;;;9.53;;
76568;SDS011;65429;44.498;0.166;2022-12-07T04:11:15;17.10;;;10.87;;
76568;SDS011;65429;44.498;0.166;2022-12-07T04:25:05;16.00;;;9.77;;
76568;SDS011;65429;44.498;0.166;2022-12-07T04:38:57;19.97;;;11.43;;
76568;SDS011;65429;44.498;0.166;2022-12-07T04:52:47;21.73;;;12.33;;
76568;SDS011;65429;44.498;0.166;2022-12-07T05:06:37;18.47;;;11.17;;
76568;SDS011;65429;44.498;0.166;2022-12-07T05:20:27;23.00;;;12.33;;
76568;SDS011;65429;44.498;0.166;2022-12-07T05:34:17;18.47;;;12.23;;
76568;SDS011;65429;44.498;0.166;2022-12-07T05:48:08;28.37;;;11.90;;
76568;SDS011;65429;44.498;0.166;2022-12-07T06:02:02;17.33;;;9.80;;
76568;SDS011;65429;44.498;0.166;2022-12-07T06:15:50;15.20;;;9.57;;
76568;SDS011;65429;44.498;0.166;2022-12-07T06:29:41;20.23;;;8.00;;
76568;SDS011;65429;44.498;0.166;2022-12-07T06:43:32;1.00;;;1.00;;
76568;SDS011;65429;44.498;0.166;2022-12-07T06:57:22;23.50;;;12.50;;
76568;SDS011;65429;44.498;0.166;2022-12-07T07:11:13;18.43;;;10.03;;
76568;SDS011;65429;44.498;0.166;2022-12-07T07:25:04;21.63;;;10.73;;
76568;SDS011;65429;44.498;0.166;2022-12-07T07:38:56;16.10;;;10.57;;
76568;SDS011;65429;44.498;0.166;2022-12-07T07:52:46;29.23;;;13.73;;
76568;SDS011;65429;44.498;0.166;2022-12-07T08:06:38;16.60;;;8.80;;
76568;SDS011;65429;44.498;0.166;2022-12-07T08:20:30;22.10;;;10.47;;
76568;SDS011;65429;44.498;0.166;2022-12-07T08:34:19;24.60;;;12.60;;
76568;SDS011;65429;44.498;0.166;2022-12-07T08:48:11;26.67;;;14.87;;
76568;SDS011;65429;44.498;0.166;2022-12-07T09:02:03;23.97;;;16.40;;
76568;SDS011;65429;44.498;0.166;2022-12-07T09:15:55;17.47;;;12.57;;
76568;SDS011;65429;44.498;0.166;2022-12-07T09:29:48;15.10;;;11.73;;
76568;SDS011;65429;44.498;0.166;2022-12-07T09:43:40;17.63;;;12.00;;
76568;SDS011;65429;44.498;0.166;2022-12-07T09:57:31;13.83;;;11.27;;
76568;SDS011;65429;44.498;0.166;2022-12-07T10:11:24;12.90;;;10.53;;
76568;SDS011;65429;44.498;0.166;2022-12-07T10:25:17;10.27;;;9.23;;
76568;SDS011;65429;44.498;0.166;2022-12-07T10:39:11;10.30;;;8.90;;
76568;SDS011;65429;44.498;0.166;2022-12-07T10:53:02;13.23;;;10.97;;
76568;SDS011;65429;44.498;0.166;2022-12-07T11:20:42;8.87;;;7.57;;
76568;SDS011;65429;44.498;0.166;2022-12-07T11:34:33;8.20;;;6.80;;
76568;SDS011;65429;44.498;0.166;2022-12-07T11:48:22;6.93;;;6.10;;
76568;SDS011;65429;44.498;0.166;2022-12-07T12:02:13;6.73;;;6.03;;
76568;SDS011;65429;44.498;0.166;2022-12-07T12:29:54;9.73;;;7.27;;
76568;SDS011;65429;44.498;0.166;2022-12-07T12:43:46;8.47;;;6.20;;
76568;SDS011;65429;44.498;0.166;2022-12-07T12:57:36;15.57;;;11.73;;
76568;SDS011;65429;44.498;0.166;2022-12-07T13:11:28;7.30;;;6.53;;
76568;SDS011;65429;44.498;0.166;2022-12-07T13:25:21;10.07;;;6.83;;
76568;SDS011;65429;44.498;0.166;2022-12-07T13:52:58;6.93;;;6.23;;
76568;SDS011;65429;44.498;0.166;2022-12-07T14:06:49;8.27;;;5.50;;
76568;SDS011;65429;44.498;0.166;2022-12-07T14:20:41;6.33;;;5.27;;
76568;SDS011;65429;44.498;0.166;2022-12-07T14:34:32;5.77;;;5.00;;
76568;SDS011;65429;44.498;0.166;2022-12-07T14:48:22;8.57;;;5.50;;
76568;SDS011;65429;44.498;0.166;2022-12-07T15:02:09;7.30;;;4.93;;
76568;SDS011;65429;44.498;0.166;2022-12-07T15:15:57;6.80;;;5.77;;
76568;SDS011;65429;44.498;0.166;2022-12-07T15:29:46;0.17;;;0.17;;
76568;SDS011;65429;44.498;0.166;2022-12-07T15:43:35;0.33;;;0.33;;
76568;SDS011;65429;44.498;0.166;2022-12-07T15:57:22;1.10;;;0.93;;
76568;SDS011;65429;44.498;0.166;2022-12-07T16:11:12;0.60;;;0.60;;
76568;SDS011;65429;44.498;0.166;2022-12-07T16:25:02;0.70;;;0.70;;
76568;SDS011;65429;44.498;0.166;2022-12-07T16:38:51;0.60;;;0.60;;
76568;SDS011;65429;44.498;0.166;2022-12-07T16:52:43;0.60;;;0.60;;
76568;SDS011;65429;44.498;0.166;2022-12-07T17:06:33;3.80;;;3.27;;
76568;SDS011;65429;44.498;0.166;2022-12-07T17:20:25;1.83;;;1.83;;
76568;SDS011;65429;44.498;0.166;2022-12-07T17:34:14;21.47;;;10.33;;
76568;SDS011;65429;44.498;0.166;2022-12-07T17:48:04;3.70;;;3.50;;
76568;SDS011;65429;44.498;0.166;2022-12-07T18:01:55;1.07;;;1.07;;
76568;SDS011;65429;44.498;0.166;2022-12-07T18:15:45;3.37;;;3.23;;
76568;SDS011;65429;44.498;0.166;2022-12-07T18:29:35;0.80;;;0.80;;
76568;SDS011;65429;44.498;0.166;2022-12-07T18:43:26;0.70;;;0.70;;
76568;SDS011;65429;44.498;0.166;2022-12-07T18:57:15;1.33;;;1.33;;
76568;SDS011;65429;44.498;0.166;2022-12-07T19:11:07;3.03;;;2.93;;
76568;SDS011;65429;44.498;0.166;2022-12-07T19:24:56;13.20;;;8.80;;
76568;SDS011;65429;44.498;0.166;2022-12-07T19:38:46;16.73;;;11.60;;
76568;SDS011;65429;44.498;0.166;2022-12-07T19:52:37;22.20;;;10.30;;
76568;SDS011;65429;44.498;0.166;2022-12-07T20:06:28;17.67;;;8.73;;
76568;SDS011;65429;44.498;0.166;2022-12-07T20:20:18;0.60;;;0.60;;
76568;SDS011;65429;44.498;0.166;2022-12-07T20:34:09;0.60;;;0.60;;
76568;SDS011;65429;44.498;0.166;2022-12-07T20:47:59;14.57;;;13.63;;
76568;SDS011;65429;44.498;0.166;2022-12-07T21:01:48;2.60;;;2.50;;
76568;SDS011;65429;44.498;0.166;2022-12-07T21:15:38;16.47;;;8.27;;
76568;SDS011;65429;44.498;0.166;2022-12-07T21:29:29;10.43;;;5.77;;
76568;SDS011;65429;44.498;0.166;2022-12-07T21:43:20;12.63;;;6.87;;
76568;SDS011;65429;44.498;0.166;2022-12-07T21:57:10;14.73;;;10.03;;
76568;SDS011;65429;44.498;0.166;2022-12-07T22:11:02;24.20;;;14.13;;
76568;SDS011;65429;44.498;0.166;2022-12-07T22:24:53;33.13;;;15.10;;
76568;SDS011;65429;44.498;0.166;2022-12-07T22:38:43;1.57;;;1.57;;
76568;SDS011;65429;44.498;0.166;2022-12-07T22:52:35;19.63;;;12.70;;
76568;SDS011;65429;44.498;0.166;2022-12-07T23:06:27;23.57;;;14.97;;
76568;SDS011;65429;44.498;0.166;2022-12-07T23:20:19;19.83;;;13.07;;
76568;SDS011;65429;44.498;0.166;2022-12-07T23:34:10;16.10;;;8.73;;
76568;SDS011;65429;44.498;0.166;2022-12-07T23:48:00;14.30;;;7.90;;
